Time;durP1;ratioP1;P1;durP2;ratioP2;P2;SDS_P1;SDS_P2;PMS_P1;PMS_P2;Temp;Humidity;BMP_temperature;BMP_pressure;BME280_temperature;BME280_humidity;BME280_pressure;Samples;Min_cycle;Max_cycle;Signal;HPM_P1;HPM_P2
2021/12/30 00:01:34;;;;;;;28.42;7.35;;;7.50;93.80;;;;;;5096842;28;20077;-50
2021/12/30 00:04:02;;;;;;;30.33;7.85;;;7.40;93.60;;;;;;5096842;28;20066;-46
2021/12/30 00:06:36;;;;;;;23.05;7.13;;;7.40;93.60;;;;;;5095705;27;20453;-52
2021/12/30 00:09:04;;;;;;;36.75;5.60;;;7.40;93.60;;;;;;5087557;28;20032;-52
2021/12/30 00:11:31;;;;;;;31.00;6.55;;;7.40;93.60;;;;;;5095418;28;20020;-53
2021/12/30 00:13:57;;;;;;;34.13;6.20;;;7.40;93.60;;;;;;5109323;27;20495;-51
2021/12/30 00:16:26;;;;;;;28.88;5.50;;;7.40;93.50;;;;;;5082679;28;20060;-47
2021/12/30 00:18:53;;;;;;;22.95;5.35;;;7.40;93.50;;;;;;5102078;28;20028;-46
2021/12/30 00:21:20;;;;;;;30.80;5.68;;;7.30;93.40;;;;;;5095034;28;20406;-49
2021/12/30 00:23:47;;;;;;;33.38;5.25;;;7.30;93.40;;;;;;5081299;28;20487;-47
2021/12/30 00:26:14;;;;;;;39.25;7.40;;;7.30;93.30;;;;;;5087816;28;20047;-46
2021/12/30 00:28:40;;;;;;;39.10;6.97;;;7.30;93.30;;;;;;5112430;27;20031;-48
2021/12/30 00:31:07;;;;;;;43.30;5.97;;;7.30;93.30;;;;;;5099265;27;20329;-45
2021/12/30 00:33:34;;;;;;;28.15;5.55;;;7.30;93.20;;;;;;5098402;27;20100;-51
2021/12/30 00:36:11;;;;;;;26.92;5.28;;;7.20;93.20;;;;;;5095664;28;20028;-48
2021/12/30 00:38:41;;;;;;;22.98;4.47;;;7.20;93.10;;;;;;5084944;28;20112;-49
2021/12/30 00:41:09;;;;;;;24.20;5.57;;;7.20;93.20;;;;;;5054147;28;20032;-48
2021/12/30 00:43:36;;;;;;;19.67;4.93;;;7.20;93.20;;;;;;5099604;28;20197;-51
2021/12/30 00:46:03;;;;;;;30.73;5.28;;;7.20;93.20;;;;;;5102825;27;20031;-46
2021/12/30 00:48:29;;;;;;;32.78;4.38;;;7.30;93.20;;;;;;5096908;28;20059;-47
2021/12/30 00:50:57;;;;;;;33.90;5.90;;;7.30;93.10;;;;;;5096656;27;20048;-50
2021/12/30 00:53:24;;;;;;;35.90;6.82;;;7.30;93.10;;;;;;5105171;28;20326;-51
2021/12/30 00:55:50;;;;;;;22.88;4.82;;;7.20;93.00;;;;;;5103115;28;20036;-52
2021/12/30 00:58:16;;;;;;;26.05;4.80;;;7.20;93.00;;;;;;5083308;28;20066;-49
2021/12/30 01:00:45;;;;;;;28.58;4.63;;;7.20;93.00;;;;;;5086017;28;20082;-51
2021/12/30 01:03:12;;;;;;;31.08;5.05;;;7.20;92.90;;;;;;5087130;28;20081;-48
2021/12/30 01:05:37;;;;;;;26.35;4.50;;;7.20;92.90;;;;;;5104464;28;20109;-48
2021/12/30 01:08:08;;;;;;;27.73;5.20;;;7.10;92.80;;;;;;5104434;27;21542;-50
2021/12/30 01:10:39;;;;;;;29.35;5.22;;;7.10;92.80;;;;;;5097711;27;20473;-47
2021/12/30 01:13:10;;;;;;;23.60;5.65;;;7.00;92.80;;;;;;5083492;28;20363;-52
2021/12/30 01:21:08;;;;;;;27.73;6.05;;;6.90;92.70;;;;;;5094264;28;20448;-48
2021/12/30 01:23:35;;;;;;;23.55;4.65;;;6.90;92.70;;;;;;5107467;28;20765;-48
2021/12/30 01:26:04;;;;;;;24.42;5.38;;;6.90;92.80;;;;;;5079217;28;20069;-47
2021/12/30 01:28:31;;;;;;;20.65;4.40;;;6.90;92.80;;;;;;5089532;28;20107;-48
2021/12/30 01:30:58;;;;;;;27.10;4.43;;;6.90;92.90;;;;;;5112472;28;20035;-47
2021/12/30 01:33:26;;;;;;;19.80;5.20;;;7.00;92.90;;;;;;5108508;28;20036;-49
2021/12/30 01:35:53;;;;;;;23.55;4.72;;;7.00;93.10;;;;;;5076204;28;20032;-50
2021/12/30 01:38:20;;;;;;;33.85;7.85;;;7.00;93.10;;;;;;5069570;28;20037;-51
2021/12/30 01:40:50;;;;;;;20.48;4.78;;;7.00;93.00;;;;;;5111821;28;20032;-51
2021/12/30 01:43:17;;;;;;;24.45;4.50;;;7.00;93.00;;;;;;5085908;28;20055;-49
2021/12/30 01:45:45;;;;;;;25.20;5.15;;;7.00;93.00;;;;;;5104673;28;20060;-49
2021/12/30 01:48:13;;;;;;;28.48;5.57;;;7.00;93.00;;;;;;5077586;28;20053;-51
2021/12/30 01:50:41;;;;;;;26.33;5.20;;;7.00;93.00;;;;;;5102611;28;20028;-47
2021/12/30 01:53:09;;;;;;;28.30;5.18;;;7.00;93.10;;;;;;5095957;28;20020;-48
2021/12/30 01:55:38;;;;;;;21.67;4.82;;;7.00;93.10;;;;;;5094096;28;20376;-51
2021/12/30 01:58:05;;;;;;;22.52;4.68;;;7.00;93.00;;;;;;5092427;28;20023;-51
2021/12/30 02:00:35;;;;;;;31.75;5.68;;;7.00;92.90;;;;;;5109435;28;20028;-53
2021/12/30 02:03:01;;;;;;;21.45;5.32;;;6.90;92.90;;;;;;5105413;27;20036;-49
2021/12/30 02:05:29;;;;;;;22.25;4.63;;;6.90;92.90;;;;;;5093134;28;20363;-48
2021/12/30 02:07:56;;;;;;;28.92;4.75;;;6.90;92.90;;;;;;5096204;28;20556;-54
2021/12/30 02:10:23;;;;;;;24.50;5.28;;;6.80;93.10;;;;;;5098872;28;20036;-52
2021/12/30 02:12:53;;;;;;;26.15;4.70;;;6.90;93.10;;;;;;5096748;28;20176;-48
2021/12/30 02:15:20;;;;;;;;;;;6.90;93.10;;;;;;5125620;27;20030;-48
2021/12/30 02:17:51;;;;;;;22.52;4.40;;;6.80;93.10;;;;;;5086736;28;19923;-50
2021/12/30 02:20:43;;;;;;;24.58;6.22;;;6.90;93.20;;;;;;5095516;28;20024;-49
2021/12/30 02:23:10;;;;;;;22.85;4.65;;;6.90;93.30;;;;;;5076507;28;20389;-53
2021/12/30 02:25:37;;;;;;;25.58;8.10;;;6.90;93.30;;;;;;5084300;28;20046;-49
2021/12/30 02:28:13;;;;;;;22.83;4.53;;;6.90;93.30;;;;;;5094775;28;20047;-52
2021/12/30 02:30:42;;;;;;;25.25;5.00;;;6.90;93.40;;;;;;5100950;27;20126;-48
2021/12/30 02:33:09;;;;;;;18.38;5.10;;;6.90;93.40;;;;;;5096538;28;20050;-50
2021/12/30 02:35:37;;;;;;;20.85;6.40;;;7.00;93.50;;;;;;5077112;28;20090;-52
2021/12/30 02:38:05;;;;;;;26.48;6.38;;;6.90;93.30;;;;;;5108056;28;20368;-54
2021/12/30 02:40:37;;;;;;;30.25;6.32;;;6.90;93.30;;;;;;5110113;28;20364;-54
2021/12/30 02:43:10;;;;;;;26.83;5.32;;;6.90;93.40;;;;;;5103148;28;20143;-51
2021/12/30 02:45:37;;;;;;;26.67;4.70;;;6.90;93.40;;;;;;5075016;28;20038;-51
2021/12/30 02:48:05;;;;;;;22.15;4.90;;;6.90;93.50;;;;;;5099323;28;20042;-52
2021/12/30 02:50:32;;;;;;;22.02;5.90;;;6.90;93.50;;;;;;5107272;27;20342;-54
2021/12/30 02:52:59;;;;;;;17.75;4.68;;;6.90;93.50;;;;;;5097078;28;20024;-55
2021/12/30 02:55:29;;;;;;;27.67;4.80;;;6.90;93.40;;;;;;5111989;28;20027;-51
2021/12/30 02:57:56;;;;;;;25.67;6.60;;;6.90;93.40;;;;;;5098874;27;20032;-56
2021/12/30 03:00:23;;;;;;;28.67;6.28;;;6.80;93.30;;;;;;5109159;28;20031;-51
2021/12/30 03:02:50;;;;;;;19.50;4.82;;;6.70;93.20;;;;;;5112805;28;20073;-55
2021/12/30 03:05:22;;;;;;;26.48;5.82;;;6.80;93.30;;;;;;5111236;27;20044;-55
2021/12/30 03:07:50;;;;;;;31.63;10.02;;;6.80;93.40;;;;;;5085896;28;20028;-56
2021/12/30 03:10:20;;;;;;;32.75;5.95;;;6.80;93.40;;;;;;5112903;28;20032;-56
2021/12/30 03:12:46;;;;;;;27.98;5.65;;;6.70;93.40;;;;;;5098403;27;20020;-52
2021/12/30 03:15:15;;;;;;;19.58;5.38;;;6.70;93.40;;;;;;5094552;28;20063;-53
2021/12/30 03:17:41;;;;;;;23.40;4.67;;;6.70;93.40;;;;;;5109511;27;20052;-50
2021/12/30 03:20:13;;;;;;;24.60;5.53;;;6.70;93.30;;;;;;5102782;27;20040;-52
2021/12/30 03:22:40;;;;;;;25.25;5.43;;;6.70;93.40;;;;;;5101889;28;20038;-53
2021/12/30 03:25:09;;;;;;;37.80;6.72;;;6.70;93.30;;;;;;5115877;28;20061;-54
2021/12/30 03:27:38;;;;;;;28.65;6.85;;;6.70;93.40;;;;;;5102860;28;20096;-53
2021/12/30 03:30:10;;;;;;;33.30;6.20;;;6.70;93.50;;;;;;5103036;27;20124;-51
2021/12/30 03:32:35;;;;;;;22.08;5.03;;;6.70;93.60;;;;;;5112222;28;20034;-53
2021/12/30 03:35:04;;;;;;;35.20;6.55;;;6.80;93.50;;;;;;5105156;27;20032;-54
2021/12/30 03:37:30;;;;;;;35.17;8.73;;;6.80;93.60;;;;;;5095145;27;20361;-53
2021/12/30 03:39:56;;;;;;;34.72;6.65;;;6.80;93.70;;;;;;5095620;28;20210;-54
2021/12/30 03:42:22;;;;;;;36.38;7.95;;;6.90;93.70;;;;;;5100038;28;20348;-49
2021/12/30 03:44:49;;;;;;;24.48;6.22;;;6.90;93.80;;;;;;5097963;28;20040;-54
2021/12/30 03:47:18;;;;;;;33.70;5.82;;;6.90;93.70;;;;;;5081310;28;20032;-52
2021/12/30 03:49:46;;;;;;;33.67;8.68;;;6.90;93.70;;;;;;5103260;28;20028;-56
2021/12/30 03:52:19;;;;;;;31.33;6.60;;;6.90;93.80;;;;;;5090220;28;20040;-56
2021/12/30 03:54:46;;;;;;;45.15;8.13;;;6.90;93.80;;;;;;5089246;28;20472;-52
2021/12/30 03:57:13;;;;;;;27.65;7.35;;;6.90;93.70;;;;;;5114005;28;20028;-55
2021/12/30 03:59:40;;;;;;;33.88;7.93;;;6.90;93.70;;;;;;5096887;28;20062;-55
2021/12/30 04:02:07;;;;;;;30.00;6.47;;;6.90;93.60;;;;;;5094930;28;20432;-56
2021/12/30 04:04:34;;;;;;;36.25;7.32;;;6.90;93.70;;;;;;5103857;28;20031;-53
2021/12/30 04:07:00;;;;;;;31.90;7.50;;;6.90;93.70;;;;;;5094894;28;20024;-52
2021/12/30 04:09:30;;;;;;;31.55;7.15;;;6.90;93.70;;;;;;5111753;28;20027;-55
2021/12/30 04:11:56;;;;;;;34.92;7.18;;;6.80;93.70;;;;;;5102771;28;20070;-55
2021/12/30 04:14:26;;;;;;;30.67;8.57;;;6.80;93.70;;;;;;5113738;28;20023;-53
2021/12/30 04:16:53;;;;;;;30.60;6.40;;;6.80;93.70;;;;;;5113642;28;20097;-53
2021/12/30 04:19:20;;;;;;;38.50;8.73;;;6.80;93.80;;;;;;5075527;28;20395;-55
2021/12/30 04:21:53;;;;;;;38.72;6.90;;;6.80;93.70;;;;;;5094162;28;20058;-55
2021/12/30 04:24:20;;;;;;;30.58;7.13;;;6.80;93.70;;;;;;5100053;28;20120;-57
2021/12/30 04:26:46;;;;;;;33.75;6.72;;;6.80;93.80;;;;;;5095746;28;20449;-53
2021/12/30 04:29:13;;;;;;;32.97;7.03;;;6.90;93.80;;;;;;5109155;28;20032;-51
2021/12/30 04:31:40;;;;;;;32.22;7.88;;;6.90;93.80;;;;;;5091999;28;20502;-50
2021/12/30 04:34:07;;;;;;;45.28;6.85;;;6.80;93.80;;;;;;5104059;28;20480;-53
2021/12/30 04:36:36;;;;;;;35.20;6.70;;;6.80;93.70;;;;;;5091289;28;20039;-55
2021/12/30 04:39:04;;;;;;;36.28;6.85;;;6.90;93.80;;;;;;5093627;28;20060;-55
2021/12/30 04:41:31;;;;;;;40.75;7.38;;;6.80;93.80;;;;;;5076937;28;20032;-53
2021/12/30 04:43:57;;;;;;;22.77;6.90;;;6.80;93.70;;;;;;5060919;27;1100447;-54
2021/12/30 04:46:24;;;;;;;38.28;6.57;;;6.80;93.60;;;;;;5085365;28;20039;-56
2021/12/30 04:48:54;;;;;;;34.00;7.88;;;6.70;93.70;;;;;;5094013;28;20444;-56
2021/12/30 04:51:21;;;;;;;39.92;7.13;;;6.70;93.70;;;;;;5100265;27;20057;-56
2021/12/30 04:53:52;;;;;;;30.65;6.57;;;6.70;93.70;;;;;;5094025;28;20360;-57
2021/12/30 04:56:18;;;;;;;33.40;7.70;;;6.60;93.70;;;;;;5105093;28;20024;-55
2021/12/30 04:58:44;;;;;;;33.28;8.30;;;6.70;93.70;;;;;;5108983;27;20043;-57
2021/12/30 05:01:11;;;;;;;39.47;8.95;;;6.60;93.70;;;;;;5112277;28;20027;-53
2021/12/30 05:03:39;;;;;;;34.58;7.22;;;6.60;93.60;;;;;;5110870;27;20054;-57
2021/12/30 05:06:06;;;;;;;42.67;8.88;;;6.70;93.70;;;;;;5107747;28;20035;-55
2021/12/30 05:08:32;;;;;;;34.72;8.55;;;6.70;93.80;;;;;;5104832;27;20040;-54
2021/12/30 05:10:59;;;;;;;38.58;6.97;;;6.70;93.80;;;;;;5110623;28;20052;-56
2021/12/30 05:13:26;;;;;;;48.03;9.50;;;6.70;93.80;;;;;;5112359;27;20062;-55
2021/12/30 05:15:53;;;;;;;38.78;9.20;;;6.70;93.80;;;;;;5114745;27;20042;-57
2021/12/30 05:18:29;;;;;;;33.55;8.20;;;6.70;93.80;;;;;;5111030;28;20352;-55
2021/12/30 05:20:57;;;;;;;39.75;7.38;;;6.70;93.80;;;;;;5108705;27;20632;-54
2021/12/30 05:23:23;;;;;;;31.30;7.25;;;6.70;93.80;;;;;;5104451;28;20487;-57
2021/12/30 05:25:49;;;;;;;29.95;7.45;;;6.70;93.90;;;;;;5102405;28;20044;-54
2021/12/30 05:28:16;;;;;;;46.17;9.65;;;6.70;93.90;;;;;;5099838;28;20035;-53
2021/12/30 05:30:43;;;;;;;40.33;9.18;;;6.80;94.00;;;;;;5094204;28;20028;-54
2021/12/30 05:33:10;;;;;;;47.15;10.75;;;6.80;94.00;;;;;;5099777;28;20063;-55
2021/12/30 05:35:37;;;;;;;41.50;10.77;;;6.90;94.10;;;;;;5093890;28;20413;-58
2021/12/30 05:38:04;;;;;;;42.00;9.70;;;6.90;94.10;;;;;;5101162;28;20065;-57
2021/12/30 05:40:32;;;;;;;35.28;11.68;;;7.00;94.10;;;;;;5110056;27;20487;-56
2021/12/30 05:43:01;;;;;;;52.17;12.23;;;7.00;94.20;;;;;;5079310;28;20071;-55
2021/12/30 05:45:27;;;;;;;55.30;11.30;;;7.10;94.20;;;;;;5106007;28;20031;-53
2021/12/30 05:47:54;;;;;;;50.72;13.27;;;7.10;94.20;;;;;;5083028;28;20031;-55
2021/12/30 05:50:25;;;;;;;55.22;13.10;;;7.20;94.20;;;;;;5096164;28;20538;-53
2021/12/30 05:52:52;;;;;;;50.17;11.38;;;7.20;94.20;;;;;;5090249;28;20062;-53
2021/12/30 05:55:19;;;;;;;42.38;10.93;;;7.20;94.30;;;;;;5096282;28;20031;-57
2021/12/30 05:57:49;;;;;;;50.88;13.02;;;7.30;94.20;;;;;;5085467;28;20020;-54
2021/12/30 06:00:18;;;;;;;47.60;12.43;;;7.30;94.20;;;;;;5112409;28;20023;-55
2021/12/30 06:02:45;;;;;;;50.92;11.70;;;7.30;94.20;;;;;;5084431;28;20036;-55
2021/12/30 06:05:13;;;;;;;45.58;11.05;;;7.30;94.30;;;;;;5095147;28;20364;-56
2021/12/30 06:07:40;;;;;;;48.33;12.40;;;7.40;94.30;;;;;;5103958;28;20085;-55
2021/12/30 06:10:07;;;;;;;54.53;15.00;;;7.40;94.30;;;;;;5107578;28;20032;-55
2021/12/30 06:12:37;;;;;;;57.20;15.68;;;7.40;94.30;;;;;;5107639;28;20031;-55
2021/12/30 06:15:05;;;;;;;47.35;14.00;;;7.50;94.40;;;;;;5110144;27;20056;-56
2021/12/30 06:17:33;;;;;;;43.92;14.90;;;7.50;94.30;;;;;;5107778;28;20024;-56
2021/12/30 06:20:00;;;;;;;44.33;14.00;;;7.50;94.40;;;;;;5095029;28;20028;-55
2021/12/30 06:22:26;;;;;;;51.50;14.13;;;7.60;94.40;;;;;;5085451;28;20065;-54
2021/12/30 06:24:53;;;;;;;69.53;15.73;;;7.60;94.40;;;;;;5107159;28;20035;-53
2021/12/30 06:27:20;;;;;;;67.30;18.08;;;7.60;94.40;;;;;;5090154;28;20065;-51
2021/12/30 06:29:49;;;;;;;54.95;16.23;;;7.70;94.50;;;;;;5112815;28;20546;-53
2021/12/30 06:32:16;;;;;;;53.80;17.90;;;7.80;94.50;;;;;;5107577;28;20067;-52
2021/12/30 06:34:46;;;;;;;52.05;18.15;;;7.90;94.50;;;;;;5081721;28;20135;-55
2021/12/30 06:37:12;;;;;;;50.28;16.25;;;7.90;94.50;;;;;;5087601;28;20373;-55
2021/12/30 06:39:39;;;;;;;54.78;18.63;;;7.90;94.50;;;;;;5094406;28;20044;-54
2021/12/30 06:42:09;;;;;;;62.05;17.77;;;8.00;94.60;;;;;;5097621;28;20409;-49
2021/12/30 06:44:36;;;;;;;;;;;8.10;94.60;;;;;;5075937;28;20048;-53
2021/12/30 06:47:05;;;;;;;53.97;19.05;;;8.10;94.60;;;;;;5106900;28;19911;-53
2021/12/30 06:49:38;;;;;;;56.97;20.85;;;8.10;94.60;;;;;;5079221;28;20043;-54
2021/12/30 06:52:11;;;;;;;56.90;18.77;;;8.10;94.60;;;;;;5108399;28;20027;-55
2021/12/30 06:54:39;;;;;;;71.55;21.95;;;8.10;94.60;;;;;;5105877;28;20043;-54
2021/12/30 06:57:06;;;;;;;59.47;20.58;;;8.20;94.60;;;;;;5103399;28;20386;-51
2021/12/30 06:59:40;;;;;;;70.50;22.17;;;8.30;94.70;;;;;;5102600;28;20016;-53
2021/12/30 07:02:07;;;;;;;64.20;22.23;;;8.40;94.70;;;;;;5099396;28;20031;-50
2021/12/30 07:04:34;;;;;;;73.18;23.00;;;8.40;94.80;;;;;;5106129;28;20024;-51
2021/12/30 07:07:01;;;;;;;66.97;23.88;;;8.50;94.80;;;;;;5106283;28;20023;-55
2021/12/30 07:09:28;;;;;;;74.65;21.95;;;8.60;94.80;;;;;;5091018;28;20031;-51
2021/12/30 07:11:56;;;;;;;64.22;21.60;;;8.60;94.90;;;;;;5108895;28;20042;-55
2021/12/30 07:14:25;;;;;;;83.82;23.85;;;8.70;94.90;;;;;;5087911;28;20031;-53
2021/12/30 07:16:52;;;;;;;77.75;23.13;;;8.80;94.80;;;;;;5087621;28;20119;-51
2021/12/30 07:19:19;;;;;;;71.40;24.42;;;8.90;94.90;;;;;;5085867;28;20029;-52
2021/12/30 07:21:50;;;;;;;85.60;24.48;;;8.90;95.00;;;;;;5100279;28;20028;-53
2021/12/30 07:24:21;;;;;;;80.75;26.45;;;9.00;95.00;;;;;;5107009;28;20032;-53
2021/12/30 07:26:49;;;;;;;78.47;23.02;;;9.10;95.00;;;;;;5107744;28;20023;-50
2021/12/30 07:29:19;;;;;;;86.88;26.75;;;9.10;94.90;;;;;;5091684;28;20027;-53
2021/12/30 07:31:47;;;;;;;74.95;24.63;;;9.20;95.00;;;;;;5095728;28;20071;-51
2021/12/30 07:34:13;;;;;;;84.15;26.00;;;9.20;95.00;;;;;;5101644;28;20054;-52
2021/12/30 07:36:41;;;;;;;74.40;25.05;;;9.30;95.00;;;;;;5103374;28;20114;-53
2021/12/30 07:39:09;;;;;;;91.50;24.33;;;9.30;95.00;;;;;;5066497;28;20028;-52
2021/12/30 07:41:38;;;;;;;86.00;23.92;;;9.40;95.10;;;;;;5087751;28;20085;-52
2021/12/30 07:44:06;;;;;;;68.82;22.17;;;9.40;95.10;;;;;;5102452;28;20463;-54
2021/12/30 07:46:35;;;;;;;62.67;22.20;;;9.40;95.10;;;;;;5086809;28;20042;-58
2021/12/30 07:49:05;;;;;;;68.57;21.90;;;9.40;95.10;;;;;;5103758;28;20107;-56
2021/12/30 07:51:32;;;;;;;61.53;21.30;;;9.50;95.10;;;;;;5104172;28;20282;-54
2021/12/30 07:54:02;;;;;;;65.63;21.92;;;9.50;95.00;;;;;;5104729;28;20024;-58
2021/12/30 07:56:33;;;;;;;50.33;20.02;;;9.50;95.10;;;;;;5103859;28;20072;-59
2021/12/30 07:58:58;;;;;;;47.55;19.58;;;9.60;95.10;;;;;;5101711;27;20410;-58
2021/12/30 08:01:24;;;;;;;60.42;20.63;;;9.60;95.10;;;;;;5105668;27;20040;-57
2021/12/30 08:03:51;;;;;;;52.03;19.42;;;9.60;95.10;;;;;;5108405;27;20051;-55
2021/12/30 08:06:18;;;;;;;55.33;20.15;;;9.70;95.10;;;;;;5086394;28;20109;-53
2021/12/30 08:08:45;;;;;;;56.35;19.02;;;9.70;95.10;;;;;;5103116;27;20035;-56
2021/12/30 08:11:12;;;;;;;49.97;19.48;;;9.70;95.10;;;;;;5101746;27;20050;-62
2021/12/30 08:13:38;;;;;;;43.80;19.42;;;9.70;95.10;;;;;;5084423;28;20429;-65
2021/12/30 08:16:07;;;;;;;52.53;20.00;;;9.70;95.10;;;;;;5103886;28;20028;-64
2021/12/30 08:18:34;;;;;;;57.93;21.37;;;9.70;95.10;;;;;;5102668;27;20358;-61
2021/12/30 08:21:00;;;;;;;59.65;20.92;;;9.70;95.10;;;;;;5100930;28;20080;-61
2021/12/30 08:23:27;;;;;;;52.05;20.88;;;9.70;95.10;;;;;;5099531;28;20405;-61
2021/12/30 08:25:56;;;;;;;51.33;18.92;;;9.70;95.00;;;;;;5103156;28;20483;-63
2021/12/30 08:28:27;;;;;;;36.72;18.48;;;9.60;95.10;;;;;;5103868;28;20036;-63
2021/12/30 08:30:57;;;;;;;42.13;18.30;;;9.60;95.00;;;;;;5084883;28;20115;-64
2021/12/30 08:33:23;;;;;;;;;;;9.70;95.10;;;;;;5104188;28;20024;-63
2021/12/30 08:35:50;;;;;;;35.53;18.02;;;9.70;95.10;;;;;;5102813;28;20422;-63
2021/12/30 08:38:18;;;;;;;44.63;19.58;;;9.70;95.10;;;;;;5101587;27;20333;-62
2021/12/30 08:40:47;;;;;;;40.55;18.80;;;9.70;95.10;;;;;;5078669;28;20032;-63
2021/12/30 08:43:17;;;;;;;40.90;18.45;;;9.60;95.10;;;;;;5101894;27;20058;-64
2021/12/30 08:45:46;;;;;;;44.72;18.00;;;9.70;95.10;;;;;;5082141;28;20023;-63
2021/12/30 08:48:15;;;;;;;34.90;17.63;;;9.70;95.10;;;;;;5091416;27;20089;-64
2021/12/30 08:50:42;;;;;;;40.13;17.15;;;9.70;95.10;;;;;;5100634;27;20123;-64
2021/12/30 08:53:09;;;;;;;36.47;17.38;;;9.70;95.10;;;;;;5076470;28;20035;-64
2021/12/30 08:55:36;;;;;;;42.80;17.65;;;9.80;95.10;;;;;;5085842;27;20048;-63
2021/12/30 08:58:03;;;;;;;36.00;16.60;;;9.80;95.10;;;;;;5095172;28;20849;-64
2021/12/30 09:00:34;;;;;;;35.70;16.10;;;9.80;95.20;;;;;;5096770;28;20050;-63
2021/12/30 09:03:06;;;;;;;31.73;15.75;;;9.90;95.20;;;;;;5087592;28;20032;-64
2021/12/30 09:05:35;;;;;;;24.88;13.70;;;9.90;95.20;;;;;;5100504;28;20027;-61
2021/12/30 09:08:03;;;;;;;23.30;11.87;;;9.90;95.20;;;;;;5105438;27;20032;-61
2021/12/30 09:10:34;;;;;;;30.92;14.68;;;10.00;95.20;;;;;;5099999;28;20281;-62
2021/12/30 09:13:01;;;;;;;23.40;11.82;;;10.00;95.20;;;;;;5101840;28;20054;-62
2021/12/30 09:15:26;;;;;;;20.30;11.57;;;10.10;95.20;;;;;;5111050;27;20019;-61
2021/12/30 09:17:53;;;;;;;20.63;10.60;;;10.20;95.20;;;;;;5100519;27;20039;-62
2021/12/30 09:20:21;;;;;;;18.83;10.13;;;10.20;95.20;;;;;;5094945;27;20448;-63
2021/12/30 09:22:48;;;;;;;22.38;9.93;;;10.30;95.30;;;;;;5093939;27;20036;-63
2021/12/30 09:25:17;;;;;;;22.30;8.90;;;10.30;95.30;;;;;;5094174;28;20059;-63
2021/12/30 09:27:44;;;;;;;17.90;9.20;;;10.40;95.30;;;;;;5101366;28;20371;-63
2021/12/30 09:30:13;;;;;;;16.10;8.30;;;10.40;95.30;;;;;;5102863;28;20475;-63
2021/12/30 09:32:43;;;;;;;16.42;7.20;;;10.50;95.30;;;;;;5107648;28;20040;-61
2021/12/30 09:35:11;;;;;;;15.05;7.40;;;10.50;95.30;;;;;;5102254;28;20031;-62
2021/12/30 09:37:40;;;;;;;14.30;5.68;;;10.60;95.30;;;;;;5080866;28;20425;-61
2021/12/30 09:40:10;;;;;;;11.70;5.65;;;10.60;95.30;;;;;;5098872;28;20468;-62
2021/12/30 09:42:39;;;;;;;11.32;5.53;;;10.70;95.30;;;;;;5089768;28;20109;-61
2021/12/30 09:45:07;;;;;;;10.75;5.03;;;10.70;95.30;;;;;;5096645;28;20031;-62
2021/12/30 09:47:34;;;;;;;8.85;4.10;;;10.70;95.30;;;;;;5100775;28;20046;-63
2021/12/30 09:50:05;;;;;;;9.85;4.30;;;10.80;95.30;;;;;;5110625;28;20076;-63
2021/12/30 09:52:32;;;;;;;6.65;3.70;;;10.80;95.30;;;;;;5109223;28;20032;-62
2021/12/30 09:55:00;;;;;;;6.55;3.90;;;10.90;95.30;;;;;;5078908;28;20088;-64
2021/12/30 09:57:27;;;;;;;7.88;3.67;;;10.90;95.30;;;;;;5094941;28;20031;-62
2021/12/30 09:59:58;;;;;;;6.53;3.60;;;10.90;95.30;;;;;;5111386;28;20531;-62
2021/12/30 10:02:25;;;;;;;5.75;3.03;;;10.90;95.30;;;;;;5097743;28;20028;-62
2021/12/30 10:05:08;;;;;;;6.18;3.22;;;10.90;95.40;;;;;;5107941;28;20023;-61
2021/12/30 10:07:39;;;;;;;8.70;2.65;;;11.00;95.40;;;;;;5092741;28;20019;-61
2021/12/30 10:10:26;;;;;;;6.35;3.05;;;11.00;95.40;;;;;;5100703;28;20397;-62
2021/12/30 10:12:53;;;;;;;6.75;3.13;;;11.10;95.40;;;;;;5094059;28;20028;-63
2021/12/30 10:15:24;;;;;;;5.65;2.90;;;11.10;95.30;;;;;;5098328;27;20055;-63
2021/12/30 10:17:58;;;;;;;6.07;2.30;;;11.10;95.30;;;;;;5098849;28;20372;-63
2021/12/30 10:20:27;;;;;;;5.13;2.15;;;11.10;95.40;;;;;;5098235;27;20038;-63
2021/12/30 10:23:06;;;;;;;4.13;1.80;;;11.20;95.30;;;;;;5101914;28;20024;-63
2021/12/30 10:25:39;;;;;;;4.23;1.73;;;11.20;95.30;;;;;;5067948;28;20031;-63
2021/12/30 10:28:40;;;;;;;3.13;1.48;;;11.20;95.40;;;;;;5107142;28;20040;-63
2021/12/30 10:31:19;;;;;;;3.33;1.45;;;11.20;95.30;;;;;;5095439;28;20020;-63
2021/12/30 10:34:04;;;;;;;2.97;1.45;;;11.20;95.40;;;;;;5097219;28;20028;-64
2021/12/30 10:36:41;;;;;;;2.67;1.20;;;11.30;95.30;;;;;;5083428;28;20428;-64
2021/12/30 10:39:25;;;;;;;2.00;1.10;;;11.30;95.30;;;;;;5103319;28;20016;-64
2021/12/30 10:42:19;;;;;;;3.17;1.00;;;11.30;95.40;;;;;;5097578;28;20032;-64
2021/12/30 10:45:05;;;;;;;2.50;1.00;;;11.30;95.40;;;;;;5106104;28;20048;-64
2021/12/30 10:47:53;;;;;;;2.30;0.80;;;11.40;95.40;;;;;;5077609;28;20457;-64
2021/12/30 10:50:22;;;;;;;1.70;0.70;;;11.40;95.40;;;;;;5101522;28;20032;-63
2021/12/30 10:52:55;;;;;;;0.95;0.60;;;11.40;95.30;;;;;;5096610;28;20043;-63
2021/12/30 10:55:23;;;;;;;2.25;1.00;;;11.40;95.30;;;;;;5103241;28;20024;-63
2021/12/30 10:57:50;;;;;;;2.13;0.90;;;11.50;95.30;;;;;;5076585;28;20020;-63
2021/12/30 11:00:31;;;;;;;1.95;1.10;;;11.50;95.30;;;;;;5101023;28;20468;-63
2021/12/30 11:03:18;;;;;;;3.03;1.13;;;11.50;95.30;;;;;;5099372;28;20020;-63
2021/12/30 11:06:24;;;;;;;1.95;1.15;;;11.50;95.30;;;;;;5100256;28;20032;-63
2021/12/30 11:09:04;;;;;;;1.52;0.80;;;11.50;95.30;;;;;;5100952;28;20059;-63
2021/12/30 11:11:30;;;;;;;2.10;0.90;;;11.50;95.30;;;;;;5098644;28;20368;-63
2021/12/30 11:14:23;;;;;;;2.13;1.00;;;11.50;95.30;;;;;;5096920;28;20685;-63
2021/12/30 11:17:02;;;;;;;2.33;1.08;;;11.50;95.30;;;;;;5080807;28;20028;-63
2021/12/30 11:19:30;;;;;;;1.60;0.87;;;11.50;95.30;;;;;;5087619;28;20031;-63
2021/12/30 11:22:04;;;;;;;2.58;1.08;;;11.50;95.30;;;;;;5111670;27;20031;-63
2021/12/30 11:24:31;;;;;;;3.20;1.30;;;11.60;95.20;;;;;;5116862;28;20076;-63
2021/12/30 11:26:59;;;;;;;2.80;1.25;;;11.60;95.20;;;;;;5115102;28;20103;-63
2021/12/30 11:29:26;;;;;;;1.58;1.08;;;11.50;95.20;;;;;;5116592;28;20063;-63
2021/12/30 11:31:53;;;;;;;3.40;1.23;;;11.50;95.20;;;;;;5111679;28;20035;-62
2021/12/30 11:34:27;;;;;;;3.20;1.52;;;11.60;95.20;;;;;;5096999;28;20032;-63
2021/12/30 11:36:55;;;;;;;3.28;1.60;;;11.60;95.20;;;;;;5079537;28;20112;-61
2021/12/30 11:39:24;;;;;;;3.22;1.88;;;11.60;95.20;;;;;;5101878;27;20036;-62
2021/12/30 11:41:58;;;;;;;4.32;1.63;;;11.60;95.20;;;;;;5096480;28;20532;-62
2021/12/30 11:44:48;;;;;;;4.13;2.00;;;11.60;95.20;;;;;;5095592;28;20055;-62
2021/12/30 11:47:32;;;;;;;;;;;11.70;95.20;;;;;;5100948;28;20711;-62
2021/12/30 11:50:02;;;;;;;3.20;1.83;;;11.70;95.20;;;;;;5104265;28;19916;-63
2021/12/30 11:52:46;;;;;;;3.50;1.50;;;11.70;95.10;;;;;;5083279;28;20016;-62
2021/12/30 11:55:48;;;;;;;4.05;1.90;;;11.70;95.10;;;;;;5098866;28;20058;-62
2021/12/30 11:58:46;;;;;;;2.90;1.70;;;11.80;95.20;;;;;;5104843;27;20102;-63
2021/12/30 12:01:27;;;;;;;3.55;1.80;;;11.70;95.10;;;;;;5091886;28;20047;-62
2021/12/30 12:04:12;;;;;;;4.20;1.67;;;11.80;95.10;;;;;;5116314;28;20076;-63
2021/12/30 12:06:44;;;;;;;4.57;1.90;;;11.80;95.10;;;;;;5083529;28;20027;-62
2021/12/30 12:09:29;;;;;;;3.00;1.60;;;11.80;95.10;;;;;;5078750;28;20055;-62
2021/12/30 12:12:05;;;;;;;4.65;1.60;;;11.80;95.10;;;;;;5100588;27;20122;-63
2021/12/30 12:14:50;;;;;;;5.60;2.42;;;11.80;95.10;;;;;;5103390;27;20018;-63
2021/12/30 12:17:40;;;;;;;2.75;1.30;;;11.80;95.10;;;;;;5102038;27;20483;-62
2021/12/30 12:20:49;;;;;;;5.53;1.50;;;11.80;95.10;;;;;;5097865;27;20034;-62
2021/12/30 12:23:45;;;;;;;2.25;1.23;;;11.80;95.10;;;;;;5067248;28;21825;-63
2021/12/30 12:26:21;;;;;;;3.28;1.10;;;11.80;95.00;;;;;;5103779;27;20036;-62
2021/12/30 12:28:48;;;;;;;4.13;1.27;;;11.90;95.10;;;;;;5097097;28;20020;-63
2021/12/30 12:31:17;;;;;;;3.13;1.48;;;11.80;95.10;;;;;;5102819;27;20024;-63
2021/12/30 12:33:45;;;;;;;3.85;0.98;;;11.90;95.10;;;;;;5084224;28;20041;-63
2021/12/30 12:36:33;;;;;;;2.95;0.82;;;11.90;95.00;;;;;;5096168;28;20028;-63
2021/12/30 12:38:59;;;;;;;3.53;1.33;;;11.90;95.00;;;;;;5109055;27;20115;-63
2021/12/30 12:41:52;;;;;;;3.38;1.13;;;11.80;95.00;;;;;;5080868;28;20546;-63
2021/12/30 12:44:21;;;;;;;3.15;1.00;;;11.90;95.00;;;;;;5105613;28;20055;-63
2021/12/30 12:46:51;;;;;;;2.72;1.00;;;11.80;95.00;;;;;;5076942;28;20036;-63
2021/12/30 12:49:36;;;;;;;3.67;0.95;;;11.80;95.00;;;;;;5076413;28;20028;-62
2021/12/30 12:52:05;;;;;;;4.28;1.20;;;11.80;95.00;;;;;;5094191;28;20032;-64
2021/12/30 12:54:39;;;;;;;4.57;2.53;;;11.80;95.00;;;;;;5103384;28;20027;-63
2021/12/30 12:57:18;;;;;;;5.90;3.17;;;11.80;95.00;;;;;;5078170;28;20081;-63
2021/12/30 12:59:46;;;;;;;4.78;2.00;;;11.80;95.00;;;;;;5095780;27;20047;-64
2021/12/30 13:02:15;;;;;;;2.83;1.65;;;11.80;95.00;;;;;;5076847;28;20475;-63
2021/12/30 13:04:43;;;;;;;3.07;1.47;;;11.80;95.00;;;;;;5100383;28;20027;-63
2021/12/30 13:07:32;;;;;;;3.53;1.50;;;11.80;94.90;;;;;;5092509;28;20289;-63